Main page
METAR-TAF:

METAR-TAF

Airports :

Olsztyn-Mazury Airport

Olsztyn, Poland

latitude: 53-28-55N, longitude: 20-56-16E, elevation: 141 m

Current weather observation

The report was made 16 minutes ago, at 03:00 UTC
Wind 4 kt from the East/Northeast
Temperature 19°C
Humidity 88%
Pressure 1011 hPa
Visibility 10 km or more
no clouds below 1500 m and no cumulonimbus

METAR: EPSY 150300Z 07004KT CAVOK 19/17 Q1011

Time: 05:16 (03:16 UTC)

Forecast

The report was made 46 minutes ago, at 02:30 UTC
Forecast valid from 15 at 03 UTC to 15 at 12 UTC
Wind 5 kt from the East/Northeast
Visibility 10 km or more
no clouds below 1500 m and no cumulonimbus

TAF: EPSY 150230Z 1503/1512 06005KT CAVOK

Weather observations and forecasts of more than 4000 airports (METAR and TAF reports).

The available stations are represented by yellow and red dots on the map.

Hover mouse over dot to see the name of the station.

Then click to see weather observations and forecasts.

To change the map : click on the green buttons with a black cross to zoom in, on the green button with a dash to zoom out, or on the green arrows for adjacent maps.


METAR-TAF: